Time;durP1;ratioP1;P1;durP2;ratioP2;P2;SDS_P1;SDS_P2;PMS_P1;PMS_P2;Temp;Humidity;BMP_temperature;BMP_pressure;BME280_temperature;BME280_humidity;BME280_pressure;Samples;Min_cycle;Max_cycle;Signal;HPM_P1;HPM_P2
2022/08/08 00:02:49;;;;;;;4.33;4.03;;;17.30;1.00;;;;;;6278366;28;20232;-54
2022/08/08 00:05:58;;;;;;;4.27;3.97;;;17.30;1.00;;;;;;6283609;28;20611;-54
2022/08/08 00:09:12;;;;;;;4.10;3.70;;;17.30;1.00;;;;;;6285798;28;20229;-53
2022/08/08 00:12:26;;;;;;;4.00;3.80;;;17.40;1.00;;;;;;6287347;28;20233;-55
2022/08/08 00:15:38;;;;;;;3.10;3.10;;;17.30;1.00;;;;;;6262399;28;20234;-53
2022/08/08 00:19:08;;;;;;;3.50;3.40;;;17.40;1.00;;;;;;6261532;28;20237;-54
2022/08/08 00:22:18;;;;;;;3.80;3.70;;;17.40;1.00;;;;;;6262036;28;20230;-54
2022/08/08 00:25:25;;;;;;;3.47;3.37;;;17.30;1.00;;;;;;6285531;28;20310;-53
2022/08/08 00:28:49;;;;;;;3.93;3.77;;;17.30;1.00;;;;;;6286015;28;20578;-54
2022/08/08 00:31:57;;;;;;;3.47;3.37;;;17.30;1.00;;;;;;6271206;28;20361;-54
2022/08/08 00:35:34;;;;;;;3.67;3.47;;;17.20;1.00;;;;;;6280413;28;20244;-54
2022/08/08 00:38:49;;;;;;;3.80;3.60;;;17.20;1.00;;;;;;6268068;28;20610;-53
2022/08/08 00:42:30;;;;;;;3.60;3.40;;;17.10;1.00;;;;;;6277581;28;20249;-54
2022/08/08 00:45:57;;;;;;;3.37;3.20;;;17.10;1.00;;;;;;6251662;28;20491;-52
2022/08/08 00:49:29;;;;;;;3.70;3.60;;;17.00;1.00;;;;;;6260778;28;20802;-54
2022/08/08 00:52:45;;;;;;;4.23;4.03;;;17.00;1.00;;;;;;6260451;28;20752;-53
2022/08/08 00:56:36;;;;;;;3.83;3.73;;;17.00;1.00;;;;;;6284762;28;20612;-54
2022/08/08 01:00:16;;;;;;;3.93;3.83;;;17.00;1.00;;;;;;6282700;28;20750;-54
2022/08/08 01:03:55;;;;;;;4.37;4.17;;;16.90;1.00;;;;;;6279895;28;20320;-54
2022/08/08 01:07:37;;;;;;;3.50;3.40;;;16.90;1.00;;;;;;6271157;28;20686;-54
2022/08/08 01:11:26;;;;;;;4.10;3.90;;;16.90;1.00;;;;;;6284298;28;20572;-55
2022/08/08 01:15:02;;;;;;;4.03;3.73;;;16.80;1.00;;;;;;6284584;28;20324;-54
2022/08/08 01:18:36;;;;;;;3.77;3.57;;;16.80;1.00;;;;;;6246673;28;20260;-53
2022/08/08 01:22:34;;;;;;;3.87;3.77;;;16.70;1.00;;;;;;6263724;28;20640;-54
2022/08/08 01:26:20;;;;;;;4.17;3.97;;;16.80;1.00;;;;;;6262154;28;20302;-54
2022/08/08 01:29:42;;;;;;;4.20;4.00;;;16.70;1.00;;;;;;6239622;28;20608;-52
2022/08/08 01:33:36;;;;;;;3.50;3.40;;;16.60;1.00;;;;;;6265212;28;20233;-54
2022/08/08 01:37:30;;;;;;;3.67;3.53;;;16.60;1.00;;;;;;6277222;28;20240;-54
2022/08/08 01:41:00;;;;;;;4.00;3.80;;;16.50;1.00;;;;;;6281618;28;20238;-53
2022/08/08 01:44:17;;;;;;;4.00;3.90;;;16.50;1.00;;;;;;6260922;28;20234;-56
2022/08/08 01:47:32;;;;;;;4.27;4.00;;;16.40;1.00;;;;;;6284341;28;20288;-53
2022/08/08 01:51:20;;;;;;;4.23;4.03;;;16.40;1.00;;;;;;6267847;28;20238;-55
2022/08/08 01:54:53;;;;;;;4.03;3.90;;;16.40;1.00;;;;;;6254486;28;20716;-51
2022/08/08 01:58:37;;;;;;;4.13;3.87;;;16.30;1.00;;;;;;6259195;28;20466;-54
2022/08/08 02:02:08;;;;;;;3.60;3.50;;;16.30;1.00;;;;;;6259117;28;20327;-49
2022/08/08 02:05:28;;;;;;;3.60;3.50;;;16.30;1.00;;;;;;6279044;28;20232;-54
2022/08/08 02:09:01;;;;;;;3.87;3.77;;;16.30;1.00;;;;;;6253606;28;20719;-54
2022/08/08 02:12:25;;;;;;;4.07;3.87;;;16.20;1.00;;;;;;6259533;28;20253;-54
2022/08/08 02:15:35;;;;;;;3.97;3.77;;;16.20;1.00;;;;;;6257846;28;20603;-53
2022/08/08 02:18:46;;;;;;;3.37;3.27;;;16.20;1.00;;;;;;6272218;28;20237;-53
2022/08/08 02:25:40;;;;;;;3.57;3.47;;;16.20;1.00;;;;;;6280019;28;20423;-55
2022/08/08 02:29:02;;;;;;;3.37;3.37;;;16.10;1.00;;;;;;6283506;28;20572;-54
2022/08/08 02:32:19;;;;;;;3.47;3.37;;;16.10;1.00;;;;;;6277032;28;20225;-53
2022/08/08 02:35:46;;;;;;;3.57;3.47;;;16.10;1.00;;;;;;6279100;28;20855;-53
2022/08/08 02:39:46;;;;;;;3.73;3.53;;;16.10;1.00;;;;;;6279476;28;20235;-53
2022/08/08 02:43:49;;;;;;;4.03;3.60;;;16.10;1.00;;;;;;6267981;28;20229;-53
2022/08/08 02:47:41;;;;;;;4.00;3.90;;;16.00;1.00;;;;;;6272701;28;20306;-53
2022/08/08 02:51:18;;;;;;;3.70;3.60;;;16.00;1.00;;;;;;6227560;28;20241;-53
2022/08/08 02:54:55;;;;;;;3.60;3.40;;;16.00;1.00;;;;;;6275451;28;20240;-53
2022/08/08 02:58:30;;;;;;;3.60;3.50;;;16.00;1.00;;;;;;6258922;28;20477;-55
2022/08/08 03:02:04;;;;;;;3.90;3.70;;;16.00;1.00;;;;;;6275972;28;20615;-53
2022/08/08 03:05:39;;;;;;;3.83;3.73;;;16.00;1.00;;;;;;6277865;28;20249;-53
2022/08/08 03:09:40;;;;;;;3.70;3.60;;;16.00;1.00;;;;;;6282484;28;20237;-53
2022/08/08 03:13:07;;;;;;;3.20;3.20;;;16.00;1.00;;;;;;6269111;28;20226;-54
2022/08/08 03:16:45;;;;;;;3.30;3.20;;;15.90;1.00;;;;;;6252491;28;20508;-57
2022/08/08 03:20:05;;;;;;;3.80;3.70;;;15.90;1.00;;;;;;6258129;28;20548;-53
2022/08/08 03:23:13;;;;;;;3.70;3.60;;;15.90;1.00;;;;;;6264741;28;20261;-53
2022/08/08 03:26:26;;;;;;;3.87;3.77;;;15.80;1.00;;;;;;6282902;28;20772;-54
2022/08/08 03:29:38;;;;;;;3.60;3.40;;;15.80;1.00;;;;;;6273322;28;20230;-54
2022/08/08 03:36:40;;;;;;;3.97;3.83;;;15.80;1.00;;;;;;6283206;28;20783;-54
2022/08/08 03:39:45;;;;;;;4.07;3.87;;;15.70;1.00;;;;;;6283218;28;20237;-54
2022/08/08 03:43:03;;;;;;;3.87;3.67;;;15.80;1.00;;;;;;6270849;28;20229;-52
2022/08/08 03:46:21;;;;;;;4.43;4.23;;;15.80;1.00;;;;;;6283158;28;20396;-54
2022/08/08 03:49:34;;;;;;;4.07;3.97;;;15.80;1.00;;;;;;6277984;28;20244;-53
2022/08/08 03:52:57;;;;;;;3.70;3.60;;;15.80;1.00;;;;;;6281931;28;20599;-53
2022/08/08 03:56:02;;;;;;;4.30;4.10;;;15.80;1.00;;;;;;6282909;28;20357;-54
2022/08/08 03:59:11;;;;;;;3.90;3.80;;;15.80;1.00;;;;;;6279929;28;20238;-53
2022/08/08 04:02:25;;;;;;;3.90;3.80;;;15.80;1.00;;;;;;6282001;28;20230;-54
2022/08/08 04:05:48;;;;;;;3.97;3.83;;;15.80;1.00;;;;;;6282450;28;20237;-54
2022/08/08 04:08:52;;;;;;;3.93;3.83;;;15.80;1.00;;;;;;6275604;28;20369;-54
2022/08/08 04:11:56;;;;;;;3.97;3.80;;;15.80;1.00;;;;;;6282422;28;20229;-53
2022/08/08 04:15:03;;;;;;;3.67;3.47;;;15.70;1.00;;;;;;6283230;28;20447;-54
2022/08/08 04:18:06;;;;;;;3.67;3.57;;;15.80;1.00;;;;;;6274333;28;20626;-53
2022/08/08 04:21:18;;;;;;;3.63;3.53;;;15.80;1.00;;;;;;6282618;28;20478;-53
2022/08/08 04:24:25;;;;;;;3.20;3.10;;;15.70;1.00;;;;;;6287020;28;20237;-53
2022/08/08 04:27:34;;;;;;;3.70;3.60;;;15.70;1.00;;;;;;6286177;28;20724;-55
2022/08/08 04:30:57;;;;;;;4.13;3.83;;;15.80;1.00;;;;;;6278213;28;20248;-54
2022/08/08 04:34:02;;;;;;;4.40;4.30;;;15.80;1.00;;;;;;6285645;28;20237;-54
2022/08/08 04:37:06;;;;;;;4.13;4.03;;;15.70;1.00;;;;;;6284715;28;20391;-54
2022/08/08 04:40:10;;;;;;;4.50;4.10;;;15.80;1.00;;;;;;6278891;28;20240;-54
2022/08/08 04:43:16;;;;;;;6.37;4.50;;;15.80;1.00;;;;;;6248844;28;20225;-50
2022/08/08 04:46:19;;;;;;;4.90;4.70;;;15.80;1.00;;;;;;6280133;28;20637;-53
2022/08/08 04:49:22;;;;;;;3.97;3.77;;;15.80;1.00;;;;;;6287157;28;20316;-54
2022/08/08 04:52:45;;;;;;;4.63;4.17;;;15.80;1.00;;;;;;6283901;28;20252;-54
2022/08/08 04:56:00;;;;;;;4.37;4.27;;;15.90;1.00;;;;;;6279596;28;20317;-53
2022/08/08 04:59:06;;;;;;;4.60;4.30;;;16.00;1.00;;;;;;6282426;28;20248;-59
2022/08/08 05:02:10;;;;;;;3.97;3.87;;;16.10;1.00;;;;;;6284500;28;20236;-54
2022/08/08 05:05:16;;;;;;;3.93;3.83;;;16.20;1.00;;;;;;6286583;28;20287;-53
2022/08/08 05:08:39;;;;;;;6.30;5.53;;;16.40;1.00;;;;;;6284207;28;20234;-53
2022/08/08 05:11:43;;;;;;;5.20;4.63;;;16.60;1.00;;;;;;6285007;28;20234;-53
2022/08/08 05:14:59;;;;;;;4.83;4.30;;;16.80;1.00;;;;;;6285135;28;20642;-54
2022/08/08 05:18:06;;;;;;;5.00;4.50;;;16.90;1.00;;;;;;6278978;28;20533;-56
2022/08/08 05:21:09;;;;;;;4.27;3.97;;;17.10;1.00;;;;;;6283572;28;20229;-54
2022/08/08 05:24:16;;;;;;;4.50;4.27;;;17.20;1.00;;;;;;6285399;28;20637;-54
2022/08/08 05:27:24;;;;;;;4.87;4.33;;;17.40;1.00;;;;;;6284667;28;20230;-55
2022/08/08 05:30:28;;;;;;;10.83;3.90;;;17.70;1.00;;;;;;6281294;28;20248;-53
2022/08/08 05:33:31;;;;;;;6.07;4.50;;;17.90;1.00;;;;;;6284587;28;20237;-54
2022/08/08 05:36:52;;;;;;;5.17;4.13;;;18.10;1.00;;;;;;6278800;28;20244;-55
2022/08/08 05:40:03;;;;;;;5.97;4.10;;;18.30;1.00;;;;;;6273768;28;20222;-55
2022/08/08 05:43:09;;;;;;;4.33;3.77;;;18.60;1.00;;;;;;6285372;28;20233;-54
2022/08/08 05:46:34;;;;;;;4.90;4.10;;;18.90;1.00;;;;;;6284489;28;20729;-54
2022/08/08 05:49:41;;;;;;;4.67;3.60;;;19.10;1.00;;;;;;6280393;28;20241;-54
2022/08/08 05:52:58;;;;;;;4.83;4.33;;;19.40;1.00;;;;;;6284514;28;20229;-53
2022/08/08 05:56:23;;;;;;;4.77;3.60;;;19.70;1.00;;;;;;6275598;28;20599;-53
2022/08/08 05:59:26;;;;;;;3.90;3.70;;;20.00;1.00;;;;;;6283485;28;20237;-54
2022/08/08 06:03:13;;;;;;;4.67;4.37;;;20.20;1.00;;;;;;6284717;28;20225;-53
2022/08/08 06:06:29;;;;;;;4.03;3.83;;;20.40;1.00;;;;;;6275624;28;20236;-53
2022/08/08 06:09:38;;;;;;;5.87;4.10;;;20.70;1.00;;;;;;6281111;28;20237;-54
2022/08/08 06:13:01;;;;;;;4.33;3.97;;;20.90;1.00;;;;;;6273052;28;20579;-55
2022/08/08 06:16:06;;;;;;;4.40;4.20;;;21.20;1.00;;;;;;6284794;28;20229;-53
2022/08/08 06:19:12;;;;;;;9.30;4.53;;;21.30;1.00;;;;;;6283844;28;20237;-53
2022/08/08 06:22:18;;;;;;;4.53;4.13;;;21.50;1.00;;;;;;6284408;28;20269;-53
2022/08/08 06:25:41;;;;;;;6.07;4.67;;;21.60;1.00;;;;;;6282558;28;20695;-52
2022/08/08 06:29:05;;;;;;;4.97;4.57;;;21.80;1.00;;;;;;6274809;28;20238;-54
2022/08/08 06:32:30;;;;;;;4.43;4.13;;;22.00;1.00;;;;;;6278882;28;20233;-54
2022/08/08 06:35:36;;;;;;;10.20;4.30;;;22.20;1.00;;;;;;6283608;28;20229;-54
2022/08/08 06:38:59;;;;;;;4.77;3.67;;;22.40;1.00;;;;;;6277568;28;20238;-55
2022/08/08 06:42:11;;;;;;;7.30;4.70;;;22.50;1.00;;;;;;6284049;28;20244;-54
2022/08/08 06:45:15;;;;;;;4.97;4.33;;;22.50;1.00;;;;;;6283586;28;20225;-55
2022/08/08 06:48:18;;;;;;;4.67;4.30;;;22.70;1.00;;;;;;6283271;28;20257;-54
2022/08/08 06:51:24;;;;;;;14.83;4.03;;;22.90;1.00;;;;;;6284114;28;20245;-54
2022/08/08 06:54:48;;;;;;;11.33;4.40;;;22.90;1.00;;;;;;6283799;28;20316;-53
2022/08/08 06:57:52;;;;;;;7.27;3.93;;;22.90;1.00;;;;;;6272451;28;20722;-54
2022/08/08 07:01:02;;;;;;;6.47;4.23;;;23.00;1.00;;;;;;6274656;28;20237;-56
2022/08/08 07:04:39;;;;;;;8.17;5.03;;;23.10;1.00;;;;;;6251955;28;20274;-48
2022/08/08 07:08:03;;;;;;;6.90;4.53;;;23.00;1.00;;;;;;6282543;28;20264;-55
2022/08/08 07:11:07;;;;;;;4.87;4.10;;;23.20;1.00;;;;;;6275863;28;20645;-53
2022/08/08 07:14:30;;;;;;;7.13;4.37;;;23.50;1.00;;;;;;6276844;28;20687;-55
2022/08/08 07:17:37;;;;;;;12.80;4.83;;;23.70;1.00;;;;;;6283597;28;20229;-57
2022/08/08 07:21:06;;;;;;;5.83;4.50;;;23.70;1.00;;;;;;6275458;28;20302;-54
2022/08/08 07:24:26;;;;;;;4.60;4.30;;;23.70;1.00;;;;;;6282549;28;20237;-53
2022/08/08 07:27:36;;;;;;;4.50;4.23;;;23.70;1.00;;;;;;6279562;28;20230;-55
2022/08/08 07:30:59;;;;;;;7.83;3.70;;;23.60;1.00;;;;;;6267195;28;20238;-54
2022/08/08 07:34:03;;;;;;;5.00;4.60;;;23.70;1.00;;;;;;6282284;28;20321;-54
2022/08/08 07:37:13;;;;;;;6.37;4.37;;;23.70;1.00;;;;;;6282890;28;20600;-54
2022/08/08 07:40:18;;;;;;;4.73;4.00;;;23.70;1.00;;;;;;6278646;28;20243;-56
2022/08/08 07:43:34;;;;;;;7.30;4.90;;;23.70;1.00;;;;;;6278364;28;20233;-55
2022/08/08 07:46:39;;;;;;;5.50;5.00;;;23.70;1.00;;;;;;6283086;28;20488;-54
2022/08/08 07:49:43;;;;;;;7.33;4.37;;;23.70;1.00;;;;;;6275488;28;20241;-53
2022/08/08 07:52:55;;;;;;;5.73;4.57;;;23.70;1.00;;;;;;6283338;28;20314;-56
2022/08/08 07:56:03;;;;;;;7.17;5.17;;;23.70;1.00;;;;;;6274239;28;20702;-57
2022/08/08 07:59:12;;;;;;;6.60;4.23;;;23.50;1.00;;;;;;6284261;28;20682;-54
2022/08/08 08:02:22;;;;;;;6.07;3.90;;;23.60;1.00;;;;;;6287792;28;20229;-53
2022/08/08 08:05:43;;;;;;;4.43;4.03;;;23.70;1.00;;;;;;6287250;28;20287;-57
2022/08/08 08:08:55;;;;;;;3.97;3.77;;;23.70;1.00;;;;;;6287931;28;20412;-53
2022/08/08 08:11:59;;;;;;;4.10;3.70;;;23.70;1.00;;;;;;6280761;28;20233;-54
2022/08/08 08:15:05;;;;;;;4.43;4.07;;;23.80;1.00;;;;;;6283139;28;21003;-55
2022/08/08 08:18:09;;;;;;;3.80;3.60;;;23.80;1.00;;;;;;6286697;28;20355;-52
2022/08/08 08:21:17;;;;;;;6.87;3.80;;;23.90;1.00;;;;;;6286331;28;20237;-54
2022/08/08 08:24:20;;;;;;;4.97;3.77;;;24.00;1.00;;;;;;6285079;28;20691;-54
2022/08/08 08:27:34;;;;;;;3.90;3.47;;;24.10;1.00;;;;;;6286666;28;20629;-54
2022/08/08 08:30:38;;;;;;;5.37;3.57;;;24.20;1.00;;;;;;6286350;28;20657;-54
2022/08/08 08:33:41;;;;;;;5.87;3.50;;;24.20;1.00;;;;;;6285725;28;20271;-55
2022/08/08 08:36:48;;;;;;;3.47;3.20;;;24.30;1.00;;;;;;6286592;28;20229;-52
2022/08/08 08:39:56;;;;;;;4.17;3.77;;;24.30;1.00;;;;;;6283876;28;20240;-54
2022/08/08 08:43:06;;;;;;;4.17;3.90;;;24.30;1.00;;;;;;6277752;28;20686;-54
2022/08/08 08:46:20;;;;;;;4.33;3.50;;;24.30;1.00;;;;;;6278268;28;20679;-54
2022/08/08 08:49:27;;;;;;;3.93;3.63;;;24.40;1.00;;;;;;6286575;28;20230;-61
2022/08/08 08:52:40;;;;;;;3.80;3.50;;;24.50;1.00;;;;;;6286668;28;20236;-53
2022/08/08 08:56:01;;;;;;;3.53;3.23;;;24.50;1.00;;;;;;6277810;28;20233;-55
2022/08/08 08:59:06;;;;;;;3.40;2.90;;;24.60;1.00;;;;;;6285672;28;20744;-55
2022/08/08 09:02:20;;;;;;;3.40;3.13;;;24.70;1.00;;;;;;6285116;28;20233;-54
2022/08/08 09:05:25;;;;;;;3.50;3.20;;;24.50;1.00;;;;;;6285131;28;20519;-54
2022/08/08 09:08:53;;;;;;;3.50;3.40;;;24.50;1.00;;;;;;6285505;28;20235;-53
2022/08/08 09:12:00;;;;;;;3.20;3.00;;;24.70;1.00;;;;;;6275474;28;20626;-54
2022/08/08 09:15:12;;;;;;;3.37;3.27;;;24.90;1.00;;;;;;6282347;28;20232;-54
2022/08/08 09:18:16;;;;;;;3.00;2.80;;;25.10;1.00;;;;;;6283889;28;20343;-53
2022/08/08 09:21:21;;;;;;;3.27;3.17;;;25.10;1.00;;;;;;6285620;28;20352;-54
2022/08/08 09:24:44;;;;;;;3.30;3.20;;;25.10;1.00;;;;;;6284303;28;20242;-55
2022/08/08 09:27:48;;;;;;;3.10;2.87;;;25.20;1.00;;;;;;6285690;28;20602;-54
2022/08/08 09:31:07;;;;;;;3.20;3.00;;;25.30;1.00;;;;;;6286315;28;20244;-54
2022/08/08 09:34:18;;;;;;;3.47;3.37;;;25.30;1.00;;;;;;6280773;28;20240;-55
2022/08/08 09:37:45;;;;;;;3.50;3.20;;;25.50;1.00;;;;;;6286361;28;20772;-55
2022/08/08 09:41:06;;;;;;;3.60;3.40;;;25.50;1.00;;;;;;6280409;28;20436;-55
2022/08/08 09:44:16;;;;;;;3.17;2.97;;;25.50;1.00;;;;;;6283995;28;20287;-55
2022/08/08 09:47:35;;;;;;;3.47;3.30;;;25.40;1.00;;;;;;6285112;28;20268;-55
2022/08/08 09:50:58;;;;;;;3.10;3.00;;;25.20;1.00;;;;;;6283822;28;20240;-53
2022/08/08 09:54:03;;;;;;;3.93;3.50;;;25.10;1.00;;;;;;6285462;28;20324;-54
2022/08/08 09:57:23;;;;;;;3.47;3.30;;;25.30;1.00;;;;;;6280529;28;20331;-54
2022/08/08 10:00:31;;;;;;;3.60;3.30;;;25.60;1.00;;;;;;6283584;28;20391;-53
2022/08/08 10:03:58;;;;;;;3.57;3.47;;;25.90;1.00;;;;;;6284787;28;20245;-55
2022/08/08 10:07:06;;;;;;;3.10;3.00;;;26.00;1.00;;;;;;6278694;28;20249;-54
2022/08/08 10:10:12;;;;;;;3.40;3.30;;;26.20;1.00;;;;;;6278152;28;20237;-54
2022/08/08 10:13:19;;;;;;;4.53;3.57;;;26.50;1.00;;;;;;6285403;28;20514;-54
2022/08/08 10:16:37;;;;;;;3.20;3.10;;;26.70;1.00;;;;;;6284250;28;20226;-55
2022/08/08 10:19:42;;;;;;;4.43;3.37;;;26.90;1.00;;;;;;6284721;28;20247;-54
2022/08/08 10:23:03;;;;;;;3.60;3.40;;;27.20;1.00;;;;;;6274492;28;20218;-53
2022/08/08 10:26:06;;;;;;;3.43;3.23;;;27.40;1.00;;;;;;6282540;28;20233;-55
2022/08/08 10:29:39;;;;;;;3.53;3.33;;;27.50;1.00;;;;;;6285301;28;20233;-60
2022/08/08 10:33:01;;;;;;;3.20;3.10;;;27.40;1.00;;;;;;6275768;28;20587;-54
2022/08/08 10:36:05;;;;;;;3.27;3.07;;;27.30;1.00;;;;;;6282533;28;20282;-56
2022/08/08 10:39:27;;;;;;;4.13;3.93;;;27.30;1.00;;;;;;6284796;28;20906;-53
2022/08/08 10:42:47;;;;;;;4.23;3.57;;;27.40;1.00;;;;;;6284416;28;20226;-53
2022/08/08 10:45:51;;;;;;;4.17;3.57;;;27.50;1.00;;;;;;6284042;28;20314;-54
2022/08/08 10:49:00;;;;;;;3.57;3.23;;;27.40;1.00;;;;;;6285000;28;20637;-54
2022/08/08 10:52:06;;;;;;;4.50;3.17;;;27.20;1.00;;;;;;6284714;28;20279;-54
2022/08/08 10:55:12;;;;;;;3.67;3.37;;;26.90;1.00;;;;;;6283398;28;20237;-53
2022/08/08 10:58:28;;;;;;;4.20;3.40;;;27.10;1.00;;;;;;6284200;28;20352;-54
2022/08/08 11:01:32;;;;;;;3.60;3.40;;;27.20;1.00;;;;;;6276027;28;20608;-54
2022/08/08 11:04:44;;;;;;;7.40;3.47;;;27.20;1.00;;;;;;6282396;28;20492;-54
2022/08/08 11:07:57;;;;;;;3.80;3.23;;;27.20;1.00;;;;;;6284545;28;20255;-55
2022/08/08 11:11:20;;;;;;;3.57;3.47;;;27.10;1.00;;;;;;6283657;28;20374;-54
2022/08/08 11:14:51;;;;;;;3.87;3.60;;;26.80;1.00;;;;;;6279311;28;20241;-53
2022/08/08 11:17:54;;;;;;;3.40;3.30;;;26.70;1.00;;;;;;6281179;28;20268;-54
2022/08/08 11:21:06;;;;;;;6.17;3.30;;;26.70;1.00;;;;;;6281320;28;20230;-55
2022/08/08 11:24:14;;;;;;;3.50;3.40;;;26.60;1.00;;;;;;6280171;28;20278;-53
2022/08/08 11:27:18;;;;;;;3.83;3.37;;;26.50;1.00;;;;;;6283583;28;20306;-54
2022/08/08 11:30:28;;;;;;;3.70;3.40;;;26.30;1.00;;;;;;6282920;28;20248;-54
2022/08/08 11:33:35;;;;;;;3.40;3.20;;;26.20;1.00;;;;;;6287700;28;20253;-55
2022/08/08 11:37:00;;;;;;;3.63;3.33;;;26.40;1.00;;;;;;6287376;28;20757;-54
2022/08/08 11:40:18;;;;;;;3.50;3.30;;;26.70;1.00;;;;;;6282386;28;20290;-53
2022/08/08 11:43:29;;;;;;;3.53;3.33;;;27.00;1.00;;;;;;6284537;28;20702;-54
2022/08/08 11:46:44;;;;;;;3.63;3.33;;;27.20;1.00;;;;;;6285000;28;20232;-53
2022/08/08 11:49:57;;;;;;;3.10;3.00;;;27.40;1.00;;;;;;6287993;28;20233;-53
2022/08/08 11:53:01;;;;;;;5.10;3.43;;;27.40;1.00;;;;;;6280895;28;20249;-54
2022/08/08 11:56:19;;;;;;;3.47;3.17;;;27.30;1.00;;;;;;6288249;28;20233;-54
2022/08/08 11:59:33;;;;;;;3.57;3.40;;;27.30;1.00;;;;;;6284930;28;20307;-54
2022/08/08 12:02:58;;;;;;;3.73;3.63;;;27.40;1.00;;;;;;6287897;28;20710;-54
2022/08/08 12:06:12;;;;;;;3.40;3.20;;;27.40;1.00;;;;;;6281269;28;20234;-54
2022/08/08 12:09:16;;;;;;;3.50;3.30;;;27.80;1.00;;;;;;6285097;28;20619;-55
2022/08/08 12:12:25;;;;;;;3.37;3.13;;;28.10;1.00;;;;;;6280146;28;20756;-55
2022/08/08 12:15:32;;;;;;;3.40;3.30;;;28.40;1.00;;;;;;6285028;28;20237;-53
2022/08/08 12:18:46;;;;;;;3.90;3.67;;;28.60;1.00;;;;;;6286408;28;20597;-53
2022/08/08 12:21:50;;;;;;;3.78;3.45;;;28.80;1.00;;;;;;6289147;28;20241;-52
2022/08/08 12:25:20;;;;;;;3.43;3.33;;;28.60;1.00;;;;;;6286469;28;20663;-53
2022/08/08 12:28:33;;;;;;;4.50;3.60;;;28.70;1.00;;;;;;6287489;28;20228;-54
2022/08/08 12:31:37;;;;;;;3.50;3.40;;;28.50;1.00;;;;;;6284925;28;20240;-55
2022/08/08 12:35:01;;;;;;;4.03;3.80;;;28.40;1.00;;;;;;6285266;28;20366;-53
2022/08/08 12:38:08;;;;;;;4.10;3.70;;;28.20;1.00;;;;;;6286185;28;20225;-54
2022/08/08 12:41:21;;;;;;;3.70;3.40;;;28.10;1.00;;;;;;6285844;28;20252;-54
2022/08/08 12:44:45;;;;;;;4.13;4.03;;;27.90;1.00;;;;;;6284818;28;20228;-53
2022/08/08 12:47:59;;;;;;;6.97;3.77;;;27.70;1.00;;;;;;6286982;28;20374;-55
2022/08/08 12:51:20;;;;;;;3.30;3.07;;;27.60;1.00;;;;;;6285044;28;20245;-54
2022/08/08 12:54:25;;;;;;;5.00;4.00;;;27.40;1.00;;;;;;6282507;28;20712;-53
2022/08/08 12:57:29;;;;;;;3.53;3.30;;;27.20;1.00;;;;;;6287543;28;20603;-54
2022/08/08 13:00:34;;;;;;;4.63;3.40;;;27.00;1.00;;;;;;6282749;28;20244;-54
2022/08/08 13:03:45;;;;;;;3.80;3.70;;;26.80;1.00;;;;;;6287279;28;20233;-55
2022/08/08 13:06:59;;;;;;;4.10;3.93;;;26.50;1.00;;;;;;6286935;28;20649;-54
2022/08/08 13:10:08;;;;;;;3.80;3.60;;;26.40;1.00;;;;;;6278039;28;20237;-55
2022/08/08 13:13:26;;;;;;;4.47;4.17;;;26.30;1.00;;;;;;6286022;28;20324;-55
2022/08/08 13:16:33;;;;;;;3.80;3.43;;;26.10;1.00;;;;;;6286766;28;20403;-56
2022/08/08 13:19:36;;;;;;;3.33;3.20;;;26.00;1.00;;;;;;6280943;28;20319;-55
2022/08/08 13:22:52;;;;;;;3.13;3.03;;;26.00;1.00;;;;;;6286525;28;20230;-52
2022/08/08 13:26:14;;;;;;;4.10;3.40;;;26.00;1.00;;;;;;6282253;28;20241;-59
2022/08/08 13:29:20;;;;;;;3.87;3.70;;;26.30;1.00;;;;;;6284497;28;20253;-54
2022/08/08 13:32:25;;;;;;;4.20;3.73;;;26.70;1.00;;;;;;6285224;28;20234;-54
2022/08/08 13:35:30;;;;;;;4.07;3.87;;;26.90;1.00;;;;;;6282231;28;20718;-54
2022/08/08 13:38:46;;;;;;;4.20;3.90;;;27.20;1.00;;;;;;6288545;28;20281;-54
2022/08/08 13:41:50;;;;;;;4.43;2.93;;;27.40;1.00;;;;;;6285458;28;20709;-54
2022/08/08 13:45:03;;;;;;;4.43;3.50;;;27.60;1.00;;;;;;6283041;28;20234;-56
2022/08/08 13:48:12;;;;;;;3.60;3.30;;;27.80;1.00;;;;;;6277803;28;20237;-54
2022/08/08 13:51:17;;;;;;;3.50;3.30;;;28.10;1.00;;;;;;6285598;28;20226;-53
2022/08/08 13:54:44;;;;;;;3.53;3.23;;;28.30;1.00;;;;;;6283569;28;20295;-56
2022/08/08 13:57:52;;;;;;;3.17;2.80;;;28.40;1.00;;;;;;6281388;28;20229;-53
2022/08/08 14:01:16;;;;;;;3.63;3.53;;;28.60;1.00;;;;;;6274386;28;20621;-54
2022/08/08 14:04:23;;;;;;;3.20;3.10;;;28.80;1.00;;;;;;6283368;28;20314;-53
2022/08/08 14:07:29;;;;;;;3.33;3.23;;;28.90;1.00;;;;;;6285743;28;20382;-54
2022/08/08 14:10:34;;;;;;;3.50;3.40;;;28.80;1.00;;;;;;6283487;28;20456;-53
2022/08/08 14:13:41;;;;;;;3.43;3.33;;;29.00;1.00;;;;;;6278816;28;20306;-55
2022/08/08 14:17:04;;;;;;;3.37;3.27;;;29.10;1.00;;;;;;6285150;28;20298;-55
2022/08/08 14:20:12;;;;;;;4.10;3.53;;;29.10;1.00;;;;;;6284974;28;20241;-54
2022/08/08 14:23:42;;;;;;;3.63;3.38;;;29.10;1.00;;;;;;6280352;28;20225;-55
2022/08/08 14:27:15;;;;;;;3.87;3.27;;;28.90;1.00;;;;;;6277066;28;20367;-54
2022/08/08 14:30:19;;;;;;;4.40;3.23;;;28.50;1.00;;;;;;6279332;28;20363;-54
2022/08/08 14:33:28;;;;;;;3.23;3.03;;;28.30;1.00;;;;;;6280631;28;20702;-54
2022/08/08 14:36:40;;;;;;;3.30;3.20;;;28.10;1.00;;;;;;6282174;28;20328;-55
2022/08/08 14:39:58;;;;;;;3.37;3.10;;;27.90;1.00;;;;;;6279521;28;20269;-54
2022/08/08 14:43:08;;;;;;;3.67;3.37;;;27.70;1.00;;;;;;6277399;28;20314;-54
2022/08/08 14:46:31;;;;;;;3.53;3.33;;;27.60;1.00;;;;;;6280012;28;20230;-53
2022/08/08 14:49:36;;;;;;;4.30;3.50;;;27.50;1.00;;;;;;6280690;28;20229;-53
2022/08/08 14:53:02;;;;;;;3.23;3.13;;;27.40;1.00;;;;;;6278264;28;20714;-54
2022/08/08 14:56:06;;;;;;;2.80;2.80;;;27.90;1.00;;;;;;6280864;28;20233;-54
2022/08/08 14:59:11;;;;;;;3.22;2.95;;;28.50;1.00;;;;;;6283938;28;20676;-54
2022/08/08 15:02:34;;;;;;;3.60;3.23;;;28.80;1.00;;;;;;6276909;28;20661;-54
2022/08/08 15:05:58;;;;;;;3.80;3.47;;;29.10;1.00;;;;;;6283714;28;20239;-55
2022/08/08 15:09:02;;;;;;;3.43;3.23;;;29.10;1.00;;;;;;6280942;28;20718;-53
2022/08/08 15:12:06;;;;;;;2.90;2.80;;;28.60;1.00;;;;;;6272195;28;20325;-55
2022/08/08 15:15:12;;;;;;;3.47;3.23;;;28.50;1.00;;;;;;6284238;28;20233;-54
2022/08/08 15:18:35;;;;;;;3.37;3.27;;;28.40;1.00;;;;;;6283117;28;20251;-55
2022/08/08 15:21:43;;;;;;;3.73;3.10;;;28.10;1.00;;;;;;6282963;28;20618;-55
2022/08/08 15:24:47;;;;;;;5.47;3.50;;;27.90;1.00;;;;;;6284036;28;20257;-55
2022/08/08 15:27:53;;;;;;;2.97;2.87;;;27.70;1.00;;;;;;6283384;28;20233;-55
2022/08/08 15:31:16;;;;;;;3.57;3.47;;;27.60;1.00;;;;;;6276180;28;20618;-55
2022/08/08 15:34:39;;;;;;;2.83;2.83;;;27.70;1.00;;;;;;6279658;28;20233;-54
2022/08/08 15:37:42;;;;;;;3.10;2.87;;;27.80;1.00;;;;;;6283427;28;20235;-54
2022/08/08 15:40:46;;;;;;;3.23;3.13;;;27.70;1.00;;;;;;6280533;28;20237;-54
2022/08/08 15:43:49;;;;;;;3.40;3.30;;;27.60;1.00;;;;;;6283533;28;20233;-55
2022/08/08 15:47:03;;;;;;;3.60;3.30;;;27.40;1.00;;;;;;6281747;28;20933;-54
2022/08/08 15:50:07;;;;;;;3.40;3.30;;;27.20;1.00;;;;;;6276343;28;20267;-54
2022/08/08 15:53:22;;;;;;;3.80;3.60;;;27.20;1.00;;;;;;6284720;28;20233;-54
2022/08/08 15:56:29;;;;;;;3.73;3.27;;;27.30;1.00;;;;;;6283716;28;20750;-54
2022/08/08 15:59:32;;;;;;;3.40;3.37;;;27.50;1.00;;;;;;6282994;28;20963;-55
2022/08/08 16:02:55;;;;;;;3.43;3.33;;;27.60;1.00;;;;;;6282578;28;20237;-55
2022/08/08 16:06:01;;;;;;;4.10;3.47;;;27.80;1.00;;;;;;6284441;28;20237;-56
2022/08/08 16:09:05;;;;;;;3.63;3.43;;;27.90;1.00;;;;;;6283357;28;20229;-55
2022/08/08 16:12:29;;;;;;;3.30;3.20;;;28.00;1.00;;;;;;6281779;28;20695;-55
2022/08/08 16:15:52;;;;;;;3.67;3.50;;;28.00;1.00;;;;;;6283683;28;20234;-54
2022/08/08 16:19:01;;;;;;;3.77;3.50;;;28.00;1.00;;;;;;6284237;28;20380;-61
2022/08/08 16:22:05;;;;;;;5.27;3.63;;;27.80;1.00;;;;;;6289326;28;20310;-53
2022/08/08 16:25:09;;;;;;;3.43;3.30;;;27.80;1.00;;;;;;6272789;28;20236;-54
2022/08/08 16:28:18;;;;;;;3.57;3.37;;;27.70;1.00;;;;;;6288570;28;20229;-55
2022/08/08 16:31:39;;;;;;;4.10;3.90;;;27.70;1.00;;;;;;6288129;28;20244;-55
2022/08/08 16:34:42;;;;;;;3.57;3.47;;;27.60;1.00;;;;;;6287566;28;20236;-55
2022/08/08 16:37:45;;;;;;;3.87;3.53;;;27.50;1.00;;;;;;6288787;28;20355;-56
2022/08/08 16:40:50;;;;;;;3.67;3.40;;;27.30;1.00;;;;;;6287370;28;20288;-48
2022/08/08 16:43:55;;;;;;;4.00;3.40;;;27.30;1.00;;;;;;6287089;28;20617;-54
2022/08/08 16:47:15;;;;;;;3.63;3.43;;;27.20;1.00;;;;;;6278905;28;20316;-54
2022/08/08 16:50:18;;;;;;;3.90;3.80;;;27.30;1.00;;;;;;6286108;28;20242;-55
2022/08/08 16:53:22;;;;;;;3.63;3.53;;;27.30;1.00;;;;;;6287857;28;20371;-54
2022/08/08 16:56:44;;;;;;;3.33;3.27;;;27.20;1.00;;;;;;6282588;28;20222;-54
2022/08/08 17:00:06;;;;;;;3.83;3.60;;;27.20;1.00;;;;;;6279122;28;20238;-52
2022/08/08 17:03:10;;;;;;;3.70;3.60;;;27.20;1.00;;;;;;6287702;28;20788;-56
2022/08/08 17:06:16;;;;;;;3.73;3.53;;;27.20;1.00;;;;;;6277501;28;20332;-56
2022/08/08 17:09:39;;;;;;;3.40;3.30;;;27.10;1.00;;;;;;6282284;28;20236;-56
2022/08/08 17:12:47;;;;;;;3.93;3.77;;;27.00;1.00;;;;;;6282457;28;20230;-53
2022/08/08 17:15:56;;;;;;;3.97;3.77;;;27.00;1.00;;;;;;6284330;28;20613;-54
2022/08/08 17:18:59;;;;;;;3.47;3.37;;;26.90;1.00;;;;;;6284077;28;20252;-55